createdAt,value
2022-12-08T04:43:47.990Z,9.40
2022-12-08T04:58:52.378Z,9.70
2022-12-08T05:13:56.817Z,9.70
2022-12-08T05:29:01.188Z,9.00
2022-12-08T05:44:05.686Z,9.40
2022-12-08T05:59:10.342Z,9.40
2022-12-08T06:14:14.849Z,8.90
2022-12-08T06:29:19.399Z,9.50
2022-12-08T06:44:23.956Z,8.60
2022-12-08T06:59:28.516Z,8.40
2022-12-08T07:14:33.112Z,8.40
2022-12-08T07:29:37.582Z,8.90
2022-12-08T07:44:42.031Z,8.70
2022-12-08T07:59:46.454Z,8.40
2022-12-08T08:14:50.977Z,8.50
2022-12-08T08:29:55.518Z,8.90
2022-12-08T08:44:59.988Z,9.10
2022-12-08T09:00:06.408Z,8.90
2022-12-08T09:15:12.178Z,9.90
2022-12-08T09:30:17.656Z,9.70
2022-12-08T09:45:24.166Z,9.20
2022-12-08T10:00:29.577Z,9.70
2022-12-08T10:15:45.228Z,9.40
2022-12-08T10:30:49.654Z,9.90
2022-12-08T10:45:54.256Z,9.50
2022-12-08T11:01:01.761Z,9.50
2022-12-08T11:16:07.610Z,8.90
2022-12-08T11:31:23.546Z,9.00
2022-12-08T11:46:33.713Z,9.50
2022-12-08T12:01:42.532Z,9.10
2022-12-08T12:17:04.071Z,9.70
2022-12-08T12:32:11.304Z,10.30
2022-12-08T12:47:50.883Z,10.00
2022-12-08T13:02:59.483Z,10.00
2022-12-08T13:18:04.798Z,9.80
2022-12-08T13:33:18.499Z,9.30
2022-12-08T13:49:31.950Z,9.70
2022-12-08T14:19:24.315Z,10.10
2022-12-08T14:34:28.884Z,10.00
2022-12-08T14:49:38.749Z,9.50
2022-12-08T15:04:46.003Z,10.00
2022-12-08T15:19:58.524Z,10.00
2022-12-08T15:35:03.017Z,10.00
2022-12-08T15:50:15.308Z,9.40
2022-12-08T16:36:12.224Z,9.80
2022-12-08T16:51:26.537Z,10.30
2022-12-08T17:06:31.566Z,10.00
2022-12-08T17:21:36.298Z,10.40
2022-12-08T17:36:40.822Z,9.80
2022-12-08T17:51:47.293Z,9.90
2022-12-08T18:06:51.738Z,10.20
2022-12-08T18:21:56.113Z,9.20
2022-12-08T18:37:00.902Z,9.00
2022-12-08T18:52:06.087Z,9.90
2022-12-08T19:07:10.710Z,10.20
2022-12-08T19:22:15.152Z,10.50
2022-12-08T19:37:19.667Z,9.50
2022-12-08T19:52:24.230Z,10.40
2022-12-08T20:07:28.629Z,10.50
2022-12-08T20:22:33.102Z,10.70
2022-12-08T20:37:37.545Z,10.60
2022-12-08T20:52:42.125Z,10.60
2022-12-08T21:07:46.721Z,10.70
